Time;durP1;ratioP1;P1;durP2;ratioP2;P2;SDS_P1;SDS_P2;PMS_P1;PMS_P2;Temp;Humidity;BMP_temperature;BMP_pressure;BME280_temperature;BME280_humidity;BME280_pressure;Samples;Min_cycle;Max_cycle;Signal;HPM_P1;HPM_P2
2021/09/07 00:01:07;;;;;;;30.80;26.70;;;;;;;18.13;69.29;102068.88;5040515;28;20213;-70
2021/09/07 00:03:32;;;;;;;30.90;27.40;;;;;;;17.78;70.07;102074.97;5058052;28;20512;-72
2021/09/07 00:05:57;;;;;;;33.07;27.87;;;;;;;17.66;71.37;102080.25;5057175;28;20197;-71
2021/09/07 00:08:23;;;;;;;30.73;27.47;;;;;;;18.02;69.64;102073.25;5056896;28;20359;-70
2021/09/07 00:10:48;;;;;;;31.43;28.00;;;;;;;17.89;70.40;102072.34;5058262;28;20185;-71
2021/09/07 00:13:13;;;;;;;33.87;29.50;;;;;;;17.94;70.64;102069.75;5062613;28;20558;-71
2021/09/07 00:15:39;;;;;;;32.37;28.97;;;;;;;17.81;70.65;102069.69;5068865;28;20200;-71
2021/09/07 00:18:04;;;;;;;29.73;26.30;;;;;;;17.71;71.11;102073.22;5058278;28;20181;-71
2021/09/07 00:20:30;;;;;;;31.80;27.73;;;;;;;17.71;70.98;102074.97;5058616;28;20188;-72
2021/09/07 00:22:55;;;;;;;42.87;30.70;;;;;;;17.83;70.93;102078.50;5058279;28;20273;-70
2021/09/07 00:25:20;;;;;;;38.60;30.57;;;;;;;17.78;70.93;102074.09;5057975;28;20214;-68
2021/09/07 00:27:45;;;;;;;33.07;27.47;;;;;;;17.61;71.54;102077.59;5058416;28;20243;-71
2021/09/07 00:30:11;;;;;;;30.70;27.60;;;;;;;17.90;70.83;102068.84;5058090;28;20178;-70
2021/09/07 00:32:37;;;;;;;36.73;28.97;;;;;;;18.12;69.77;102064.47;5058088;28;20205;-71
2021/09/07 00:35:02;;;;;;;32.70;29.30;;;;;;;17.65;71.02;102060.03;5058252;28;20430;-71
2021/09/07 00:37:28;;;;;;;29.70;26.77;;;;;;;17.45;71.95;102062.63;5058071;28;20174;-71
2021/09/07 00:39:53;;;;;;;34.43;28.73;;;;;;;17.32;72.82;102069.63;5057934;28;20173;-72
2021/09/07 00:42:18;;;;;;;29.63;25.20;;;;;;;17.64;71.39;102063.53;5058382;28;20213;-70
2021/09/07 00:44:44;;;;;;;28.70;25.70;;;;;;;17.66;71.36;102059.16;5057758;28;20173;-71
2021/09/07 00:47:09;;;;;;;32.10;25.80;;;;;;;17.89;70.57;102053.00;5057996;28;20222;-69
2021/09/07 00:49:36;;;;;;;28.27;24.63;;;;;;;17.81;70.40;102058.28;5058203;28;20332;-70
2021/09/07 00:52:03;;;;;;;29.33;25.50;;;;;;;17.69;70.79;102056.50;5058135;28;20177;-71
2021/09/07 00:54:30;;;;;;;32.43;26.10;;;;;;;17.56;70.97;102046.81;5057893;28;20409;-71
2021/09/07 00:56:56;;;;;;;27.40;23.87;;;;;;;17.57;71.17;102051.22;5057025;28;20414;-71
2021/09/07 00:59:22;;;;;;;23.40;21.10;;;;;;;17.86;70.13;102051.25;5020524;28;20404;-73
2021/09/07 01:01:49;;;;;;;27.50;24.37;;;;;;;17.93;69.92;102046.91;5037394;28;20233;-71
2021/09/07 01:04:14;;;;;;;26.57;23.67;;;;;;;17.84;70.20;102047.72;5038351;28;20395;-71
2021/09/07 01:06:39;;;;;;;28.67;24.80;;;;;;;18.01;69.36;102043.34;5041326;28;20398;-72
2021/09/07 01:09:06;;;;;;;30.67;23.33;;;;;;;17.88;69.51;102043.34;5040960;28;20175;-71
2021/09/07 01:11:31;;;;;;;25.73;23.10;;;;;;;17.75;70.03;102053.88;5040909;28;20488;-70
2021/09/07 01:13:56;;;;;;;24.77;22.07;;;;;;;17.58;71.09;102055.63;5037947;28;20464;-71
2021/09/07 01:16:23;;;;;;;23.90;21.30;;;;;;;17.64;70.56;102061.78;5037916;28;20217;-71
2021/09/07 01:18:48;;;;;;;25.00;22.37;;;;;;;17.58;70.98;102055.63;5038224;28;20171;-71
2021/09/07 01:21:14;;;;;;;28.07;23.27;;;;;;;17.61;70.70;102056.47;5037761;28;21754;-72
2021/09/07 01:23:42;;;;;;;24.63;21.90;;;;;;;17.34;71.53;102050.28;5037894;28;20170;-72
2021/09/07 01:26:09;;;;;;;22.93;20.43;;;;;;;17.83;69.95;102046.84;5038209;28;20416;-73
2021/09/07 01:28:34;;;;;;;24.23;21.73;;;;;;;17.53;70.88;102050.31;5037496;28;20488;-72
2021/09/07 01:31:02;;;;;;;26.00;23.00;;;;;;;17.38;71.05;102051.19;5037657;28;20507;-72
2021/09/07 01:33:27;;;;;;;25.80;22.30;;;;;;;17.71;69.99;102046.84;5040150;28;20548;-72
2021/09/07 01:36:00;;;;;;;22.60;19.80;;;;;;;17.70;70.48;102041.56;5036816;28;20394;-73
2021/09/07 01:38:26;;;;;;;24.93;21.40;;;;;;;17.70;70.26;102042.44;5036774;28;20182;-71
2021/09/07 01:40:52;;;;;;;23.10;20.60;;;;;;;17.56;70.78;102031.00;5037331;28;20445;-71
2021/09/07 01:43:18;;;;;;;23.20;20.73;;;;;;;17.59;70.35;102046.81;5037290;28;20513;-71
2021/09/07 01:45:45;;;;;;;22.87;20.33;;;;;;;17.53;70.81;102041.56;5036963;28;20532;-72
2021/09/07 01:48:11;;;;;;;24.13;20.90;;;;;;;17.45;70.85;102052.94;5036845;28;20526;-73
2021/09/07 01:50:36;;;;;;;24.17;21.67;;;;;;;17.76;69.85;102050.34;5041108;28;20475;-72
2021/09/07 01:53:01;;;;;;;24.03;21.60;;;;;;;17.64;70.53;102045.06;5041512;28;20554;-71
2021/09/07 01:55:26;;;;;;;22.53;20.20;;;;;;;17.62;70.07;102052.97;5040845;28;20181;-71
2021/09/07 01:57:52;;;;;;;24.70;22.17;;;;;;;17.30;71.36;102056.41;5041506;28;20189;-72
2021/09/07 02:00:17;;;;;;;24.53;21.77;;;;;;;17.51;70.82;102057.38;5041281;28;20221;-71
2021/09/07 02:02:43;;;;;;;25.60;22.73;;;;;;;17.23;71.48;102059.91;5040830;28;20217;-72
2021/09/07 02:05:09;;;;;;;25.90;22.57;;;;;;;17.19;71.85;102052.00;5040836;28;20185;-71
2021/09/07 02:07:34;;;;;;;25.30;22.67;;;;;;;17.11;72.08;102066.03;5041314;28;20430;-71
2021/09/07 02:09:59;;;;;;;24.60;22.00;;;;;;;17.05;72.30;102063.38;5040658;28;20536;-71
2021/09/07 02:12:24;;;;;;;25.27;22.57;;;;;;;17.09;71.94;102061.63;5040571;28;20179;-71
2021/09/07 02:14:50;;;;;;;25.27;22.40;;;;;;;17.01;72.14;102064.25;5040873;28;20174;-71
2021/09/07 02:17:15;;;;;;;24.60;20.80;;;;;;;17.11;71.73;102066.03;5040557;28;20166;-71
2021/09/07 02:19:41;;;;;;;31.40;26.33;;;;;;;16.77;72.79;102063.22;5039975;28;20208;-71
2021/09/07 02:22:06;;;;;;;27.63;23.87;;;;;;;17.04;71.81;102061.63;5040841;28;20202;-72
2021/09/07 02:24:31;;;;;;;26.77;23.97;;;;;;;16.97;71.72;102065.09;5040356;28;20185;-71
2021/09/07 02:26:57;;;;;;;25.40;22.77;;;;;;;16.81;72.88;102064.13;5040444;28;20189;-71
2021/09/07 02:29:22;;;;;;;26.57;23.67;;;;;;;16.88;72.36;102068.53;5040993;28;20174;-71
2021/09/07 02:31:47;;;;;;;25.60;22.87;;;;;;;16.90;72.42;102068.56;5040554;28;20174;-71
2021/09/07 02:34:13;;;;;;;29.93;25.57;;;;;;;16.65;73.32;102063.16;5040110;28;20224;-70
2021/09/07 02:36:38;;;;;;;29.73;25.40;;;;;;;16.64;73.50;102064.00;5040680;28;20210;-71
2021/09/07 02:39:04;;;;;;;30.73;27.50;;;;;;;16.33;74.49;102061.19;5040491;28;20257;-71
2021/09/07 02:41:29;;;;;;;27.20;24.30;;;;;;;16.57;73.50;102049.94;5040098;28;20206;-71
2021/09/07 02:43:54;;;;;;;28.17;25.10;;;;;;;16.56;73.60;102050.81;5040274;28;20210;-72
2021/09/07 02:46:20;;;;;;;28.13;25.30;;;;;;;16.61;73.36;102045.56;5039753;28;20174;-71
2021/09/07 02:48:45;;;;;;;30.27;26.83;;;;;;;16.56;73.49;102048.19;5039999;28;20174;-73
2021/09/07 02:51:10;;;;;;;30.70;27.40;;;;;;;16.53;73.46;102048.16;5040328;28;20213;-71
2021/09/07 02:53:35;;;;;;;30.17;26.97;;;;;;;16.57;73.50;102042.03;5039872;28;20166;-72
2021/09/07 02:56:01;;;;;;;29.27;24.93;;;;;;;16.65;73.21;102044.72;5039760;28;20181;-72
2021/09/07 02:58:26;;;;;;;30.60;27.50;;;;;;;16.54;73.85;102038.53;5040119;28;20531;-72
2021/09/07 03:00:51;;;;;;;32.43;28.87;;;;;;;16.57;73.75;102042.03;5038515;28;20198;-72
2021/09/07 03:03:17;;;;;;;32.73;28.90;;;;;;;16.65;73.41;102044.72;5039655;28;20191;-71
2021/09/07 03:05:42;;;;;;;33.93;30.30;;;;;;;16.51;73.96;102042.00;5040244;28;20181;-71
2021/09/07 03:08:07;;;;;;;35.27;31.47;;;;;;;16.54;73.76;102038.53;5039716;28;20162;-73
2021/09/07 03:10:33;;;;;;;35.57;30.37;;;;;;;16.20;74.82;102047.06;5039497;28;20193;-72
2021/09/07 03:12:59;;;;;;;33.20;28.80;;;;;;;16.19;75.07;102047.94;5040142;28;20220;-72
2021/09/07 03:15:25;;;;;;;38.20;31.37;;;;;;;16.30;74.62;102043.66;5038661;28;20528;-72
2021/09/07 03:17:50;;;;;;;31.93;28.37;;;;;;;16.33;74.44;102053.28;5039471;28;20175;-73
2021/09/07 03:20:15;;;;;;;34.27;28.90;;;;;;;16.32;74.12;102043.66;5039713;28;20166;-71
2021/09/07 03:22:41;;;;;;;31.87;28.20;;;;;;;16.47;73.62;102050.78;5038523;28;20202;-71
2021/09/07 03:25:06;;;;;;;33.40;29.80;;;;;;;16.29;74.18;102054.13;5038410;28;20178;-71
2021/09/07 03:27:32;;;;;;;33.10;29.60;;;;;;;16.40;73.72;102046.31;5039850;28;20588;-71
2021/09/07 03:29:57;;;;;;;32.20;28.50;;;;;;;16.30;74.06;102048.00;5039231;28;20209;-71
2021/09/07 03:32:22;;;;;;;37.23;32.60;;;;;;;16.10;74.85;102045.22;5052269;28;20178;-71
2021/09/07 03:34:48;;;;;;;37.10;30.13;;;;;;;16.02;75.29;102041.66;5073157;28;20187;-71
2021/09/07 03:37:13;;;;;;;30.93;27.67;;;;;;;16.12;74.50;102047.00;5058967;28;20173;-71
2021/09/07 03:39:38;;;;;;;31.37;28.07;;;;;;;16.16;74.73;102054.06;5059018;28;20169;-71
2021/09/07 03:42:04;;;;;;;34.00;27.27;;;;;;;16.15;74.57;102052.28;5059119;28;20197;-71
2021/09/07 03:44:29;;;;;;;32.13;28.43;;;;;;;16.02;74.90;102042.56;5058749;28;20165;-71
2021/09/07 03:46:54;;;;;;;32.20;28.47;;;;;;;16.21;74.39;102051.47;5061000;28;20308;-73
2021/09/07 03:49:20;;;;;;;32.93;28.60;;;;;;;16.08;74.62;102044.34;5044791;28;20240;-71
2021/09/07 03:51:46;;;;;;;34.60;29.87;;;;;;;16.14;74.10;102052.28;5042367;28;20197;-72
2021/09/07 03:54:11;;;;;;;33.87;29.40;;;;;;;15.96;75.13;102053.03;5038500;28;20185;-71
2021/09/07 03:56:36;;;;;;;34.43;30.23;;;;;;;16.04;74.45;102045.22;5039448;28;20174;-72
2021/09/07 03:59:03;;;;;;;33.03;28.20;;;;;;;16.08;74.48;102047.84;5038672;28;20491;-71
2021/09/07 04:01:28;;;;;;;32.67;28.03;;;;;;;16.21;73.74;102055.84;5038575;28;20217;-71
2021/09/07 04:03:53;;;;;;;34.60;29.10;;;;;;;16.11;74.38;102053.13;5038896;28;20417;-73
2021/09/07 04:06:19;;;;;;;33.90;30.20;;;;;;;16.12;74.32;102054.91;5038524;28;20540;-73
2021/09/07 04:08:44;;;;;;;34.27;30.30;;;;;;;16.09;74.21;102069.81;5038510;28;20253;-72
2021/09/07 04:11:09;;;;;;;38.27;31.07;;;;;;;16.08;74.11;102065.41;5038878;28;20555;-73
2021/09/07 04:13:35;;;;;;;37.17;31.90;;;;;;;15.90;75.10;102068.75;5038359;28;20171;-74
2021/09/07 04:16:00;;;;;;;37.57;32.00;;;;;;;15.80;75.31;102073.94;5038527;28;20170;-73
2021/09/07 04:18:26;;;;;;;35.03;30.70;;;;;;;15.77;75.54;102078.25;5038770;28;20447;-72
2021/09/07 04:20:51;;;;;;;35.20;30.47;;;;;;;15.85;75.05;102083.63;5038408;28;20288;-72
2021/09/07 04:23:16;;;;;;;36.67;31.53;;;;;;;15.95;74.88;102083.72;5038231;28;20166;-71
2021/09/07 04:25:43;;;;;;;33.77;30.13;;;;;;;15.96;74.45;102082.81;5038724;28;20528;-72
2021/09/07 04:28:08;;;;;;;39.50;30.70;;;;;;;16.13;74.07;102076.84;5038240;28;20226;-72
2021/09/07 04:30:33;;;;;;;41.40;33.37;;;;;;;15.79;75.09;102082.66;5038136;28;20801;-73
2021/09/07 04:32:59;;;;;;;41.53;35.40;;;;;;;15.78;75.70;102077.38;5038645;28;20300;-71
2021/09/07 04:35:24;;;;;;;43.13;33.67;;;;;;;16.00;74.93;102081.13;5038053;28;20219;-73
2021/09/07 04:37:49;;;;;;;42.60;33.23;;;;;;;15.78;75.28;102075.63;5038352;28;20194;-72
2021/09/07 04:40:16;;;;;;;40.37;33.70;;;;;;;15.74;75.57;102071.19;5039497;28;20231;-72
2021/09/07 04:42:42;;;;;;;45.93;34.60;;;;;;;15.85;74.90;102075.72;5054914;28;20522;-72
2021/09/07 04:45:07;;;;;;;35.10;28.90;;;;;;;15.94;74.95;102081.03;5057915;28;20422;-72
2021/09/07 04:47:33;;;;;;;36.73;32.57;;;;;;;15.87;75.06;102082.78;5057776;28;20285;-71
2021/09/07 04:49:58;;;;;;;31.73;28.03;;;;;;;15.77;75.41;102081.75;5057941;28;20480;-71
2021/09/07 04:52:23;;;;;;;34.00;30.10;;;;;;;15.79;74.95;102087.91;5058098;28;20188;-71
2021/09/07 04:54:49;;;;;;;33.23;29.30;;;;;;;16.05;74.18;102086.41;5057711;28;20165;-71
2021/09/07 04:57:14;;;;;;;32.43;28.87;;;;;;;15.80;75.11;102086.19;5058128;28;20426;-71
2021/09/07 04:59:39;;;;;;;34.43;27.90;;;;;;;16.09;74.03;102088.22;5058241;28;20180;-71
2021/09/07 05:02:05;;;;;;;34.03;28.20;;;;;;;16.08;73.77;102091.72;5040830;28;20210;-71
2021/09/07 05:04:30;;;;;;;35.17;29.50;;;;;;;15.95;73.98;102090.72;5047795;28;20222;-72
2021/09/07 05:06:56;;;;;;;30.70;27.23;;;;;;;16.25;72.84;102087.47;5078108;28;20176;-71
2021/09/07 05:09:21;;;;;;;36.47;27.77;;;;;;;16.19;73.29;102091.78;5078147;28;20173;-71
2021/09/07 05:11:46;;;;;;;31.50;27.47;;;;;;;16.06;73.45;102093.44;5069245;28;20210;-71
2021/09/07 05:14:11;;;;;;;30.50;26.83;;;;;;;16.07;73.72;102092.56;5057082;28;20197;-72
2021/09/07 05:16:37;;;;;;;30.67;26.13;;;;;;;16.14;74.05;102094.38;5056990;28;20548;-72
2021/09/07 05:19:02;;;;;;;26.43;23.73;;;;;;;16.17;73.60;102092.66;5057655;28;20176;-71
2021/09/07 05:21:29;;;;;;;29.73;26.03;;;;;;;16.18;73.64;102093.53;5057805;28;20299;-71
2021/09/07 05:23:54;;;;;;;29.23;26.10;;;;;;;16.26;73.29;102093.59;5058909;28;20165;-71
2021/09/07 05:26:19;;;;;;;27.03;24.17;;;;;;;16.44;72.41;102101.63;5061074;28;20513;-71
2021/09/07 05:28:45;;;;;;;25.60;23.00;;;;;;;16.38;72.64;102091.06;5061939;28;20276;-71
2021/09/07 05:31:10;;;;;;;24.17;21.63;;;;;;;16.26;73.53;102093.59;5061670;28;20549;-72
2021/09/07 05:33:35;;;;;;;26.37;22.80;;;;;;;16.39;72.61;102100.72;5061306;28;20235;-73
2021/09/07 05:36:01;;;;;;;23.50;21.10;;;;;;;16.64;71.82;102106.13;5061893;28;20201;-72
2021/09/07 05:38:26;;;;;;;21.73;18.87;;;;;;;16.65;71.66;102102.66;5061346;28;20185;-72
2021/09/07 05:40:53;;;;;;;22.00;19.80;;;;;;;16.88;71.51;102096.63;5055076;28;20241;-71
2021/09/07 05:43:18;;;;;;;23.00;19.73;;;;;;;17.16;70.82;102095.03;5050108;28;20701;-72
2021/09/07 05:45:43;;;;;;;20.87;18.67;;;;;;;17.71;68.28;102096.06;5046611;28;20438;-72
2021/09/07 05:48:09;;;;;;;22.47;20.13;;;;;;;17.95;66.85;102092.63;5040846;28;20226;-72
2021/09/07 05:50:34;;;;;;;18.67;16.67;;;;;;;17.99;66.66;102102.28;5051342;28;20178;-73
2021/09/07 05:53:00;;;;;;;22.80;17.03;;;;;;;17.95;66.62;102097.88;5053611;28;20197;-72
2021/09/07 05:55:26;;;;;;;18.80;16.63;;;;;;;18.45;64.90;102096.13;5051504;28;20166;-72
2021/09/07 05:57:53;;;;;;;18.27;16.57;;;;;;;19.43;61.73;102089.63;5067289;28;20423;-73
2021/09/07 06:00:19;;;;;;;18.50;16.60;;;;;;;19.72;60.64;102093.00;5064635;28;20188;-72
2021/09/07 06:02:44;;;;;;;17.60;15.80;;;;;;;19.83;60.07;102092.03;5076669;28;20470;-72
2021/09/07 06:05:10;;;;;;;17.27;15.33;;;;;;;20.17;58.72;102091.78;5066791;28;20218;-71
2021/09/07 06:07:35;;;;;;;15.63;13.87;;;;;;;21.18;55.77;102094.25;5070641;28;20253;-71
2021/09/07 06:10:01;;;;;;;17.40;15.73;;;;;;;21.49;54.70;102093.81;5060490;28;20285;-71
2021/09/07 06:12:26;;;;;;;20.93;13.93;;;;;;;22.47;52.35;102089.63;5060440;28;20166;-73
2021/09/07 06:14:52;;;;;;;14.17;12.50;;;;;;;22.85;50.83;102088.91;5057747;28;20288;-72
2021/09/07 06:17:17;;;;;;;18.50;12.30;;;;;;;24.42;46.33;102094.13;5054951;28;20232;-71
2021/09/07 06:19:43;;;;;;;15.00;12.67;;;;;;;23.76;47.54;102093.13;5058831;28;20890;-71
2021/09/07 06:22:08;;;;;;;14.30;11.33;;;;;;;23.23;48.83;102091.66;5061244;28;20201;-71
2021/09/07 06:24:34;;;;;;;15.83;11.90;;;;;;;22.62;51.01;102099.97;5060970;28;20188;-72
2021/09/07 06:26:59;;;;;;;13.13;11.67;;;;;;;22.06;52.55;102092.09;5059907;28;20446;-71
2021/09/07 06:29:24;;;;;;;11.73;10.60;;;;;;;21.77;52.93;102096.09;5060757;28;20170;-71
2021/09/07 06:31:50;;;;;;;12.70;11.33;;;;;;;21.67;53.25;102099.78;5060544;28;20170;-71
2021/09/07 06:34:15;;;;;;;12.63;11.20;;;;;;;21.15;54.65;102104.03;5060359;28;20166;-70
2021/09/07 06:36:41;;;;;;;12.63;11.33;;;;;;;20.57;56.81;102100.25;5060120;28;20178;-72
2021/09/07 06:39:06;;;;;;;16.43;11.90;;;;;;;20.42;58.00;102107.44;5059897;28;20555;-72
2021/09/07 06:41:31;;;;;;;13.70;11.77;;;;;;;20.08;58.49;102109.50;5059861;28;20558;-71
2021/09/07 06:43:56;;;;;;;14.60;12.27;;;;;;;20.03;59.17;102104.25;5059768;28;20174;-72
2021/09/07 06:46:22;;;;;;;21.50;17.20;;;;;;;20.73;57.22;102100.97;5059673;28;20535;-70
2021/09/07 06:48:47;;;;;;;14.23;12.27;;;;;;;20.96;56.25;102096.28;5060049;28;20177;-72
2021/09/07 06:51:13;;;;;;;15.20;11.70;;;;;;;21.56;53.93;102093.78;5059824;28;20463;-68
2021/09/07 06:53:38;;;;;;;17.30;11.90;;;;;;;21.95;53.01;102097.56;5059344;28;20165;-69
2021/09/07 06:56:04;;;;;;;15.03;11.20;;;;;;;22.91;49.85;102087.88;5059939;28;20166;-71
2021/09/07 06:58:29;;;;;;;18.03;11.77;;;;;;;23.93;47.85;102100.75;5059518;28;20216;-71
2021/09/07 07:00:55;;;;;;;12.40;11.20;;;;;;;23.69;48.03;102103.06;5059552;28;20193;-72
2021/09/07 07:03:20;;;;;;;11.57;10.47;;;;;;;23.07;48.73;102101.75;5058928;28;20193;-72
2021/09/07 07:05:45;;;;;;;13.67;11.03;;;;;;;22.10;51.63;102107.06;5059202;28;20170;-71
2021/09/07 07:08:11;;;;;;;13.37;9.93;;;;;;;21.05;54.74;102120.94;5059500;28;20169;-71
2021/09/07 07:10:37;;;;;;;11.30;10.27;;;;;;;20.57;56.25;102116.16;5059227;28;20217;-71
2021/09/07 07:13:03;;;;;;;14.63;12.07;;;;;;;21.49;54.28;102115.03;5059467;28;20200;-71
2021/09/07 07:15:28;;;;;;;13.20;11.87;;;;;;;20.52;56.39;102114.38;5058578;28;20249;-71
2021/09/07 07:17:53;;;;;;;14.27;12.77;;;;;;;20.38;57.19;102115.41;5059260;28;20499;-71
2021/09/07 07:20:19;;;;;;;13.17;11.83;;;;;;;22.29;52.11;102118.25;5058368;28;20181;-71
2021/09/07 07:22:44;;;;;;;12.97;10.40;;;;;;;24.42;46.86;102109.28;5064962;28;20665;-71
2021/09/07 07:25:10;;;;;;;13.00;11.07;;;;;;;25.44;44.50;102109.06;5079346;28;20173;-72
2021/09/07 07:27:39;;;;;;;12.10;9.77;;;;;;;25.89;42.28;102114.72;5078880;28;20266;-72
2021/09/07 07:30:08;;;;;;;10.60;9.33;;;;;;;26.57;40.81;102108.88;5078971;28;20542;-71
2021/09/07 07:32:34;;;;;;;9.23;8.43;;;;;;;24.66;43.65;102116.63;5065031;28;20499;-70
2021/09/07 07:35:00;;;;;;;9.97;8.00;;;;;;;24.13;46.04;102122.44;5058538;28;20798;-70
2021/09/07 07:37:25;;;;;;;7.83;7.23;;;;;;;25.60;42.32;102114.81;5058605;28;20188;-71
2021/09/07 07:39:51;;;;;;;10.13;8.47;;;;;;;25.79;42.15;102120.44;5059883;28;20205;-72
2021/09/07 07:42:16;;;;;;;12.17;8.00;;;;;;;26.87;40.00;102116.75;5058798;28;20216;-72
2021/09/07 07:44:41;;;;;;;13.30;7.90;;;;;;;26.55;40.56;102122.31;5058806;28;20169;-72
2021/09/07 07:47:07;;;;;;;8.27;7.47;;;;;;;27.15;38.46;102121.94;5058067;28;20213;-71
2021/09/07 07:49:32;;;;;;;8.50;7.70;;;;;;;25.46;42.04;102131.25;5058479;28;20181;-70
2021/09/07 07:51:57;;;;;;;9.80;7.27;;;;;;;25.83;41.71;102125.63;5058702;28;20177;-71
2021/09/07 07:54:23;;;;;;;9.33;8.43;;;;;;;25.96;41.22;102133.25;5058275;28;20460;-72
2021/09/07 07:56:48;;;;;;;7.83;7.13;;;;;;;27.13;38.24;102123.81;5058562;28;20165;-71
2021/09/07 07:59:13;;;;;;;8.13;7.43;;;;;;;27.34;37.28;102124.78;5058765;28;20514;-72
2021/09/07 08:01:39;;;;;;;7.67;6.87;;;;;;;27.64;36.27;102120.97;5058482;28;20578;-72
2021/09/07 08:04:15;;;;;;;9.67;6.97;;;;;;;27.86;36.19;102116.50;5059891;28;20166;-73
2021/09/07 08:06:40;;;;;;;6.97;6.27;;;;;;;27.77;35.96;102119.53;5059121;28;20223;-71
2021/09/07 08:09:06;;;;;;;6.53;5.73;;;;;;;28.89;33.06;102129.09;5059156;28;20420;-70
2021/09/07 08:11:32;;;;;;;8.20;6.20;;;;;;;28.09;34.25;102124.53;5058273;28;20484;-71
2021/09/07 08:13:57;;;;;;;10.03;6.13;;;;;;;27.97;34.18;102125.88;5057290;28;20451;-71
2021/09/07 08:16:23;;;;;;;7.50;6.80;;;;;;;27.00;35.84;102130.56;5048312;28;20234;-73
2021/09/07 08:18:49;;;;;;;6.80;6.10;;;;;;;27.57;34.69;102131.06;5044377;28;20454;-72
2021/09/07 08:21:14;;;;;;;5.70;5.20;;;;;;;27.41;34.64;102133.47;5073650;28;20295;-71
2021/09/07 08:23:39;;;;;;;8.30;5.60;;;;;;;28.23;32.88;102144.44;5065612;28;20184;-69
2021/09/07 08:26:05;;;;;;;5.80;5.27;;;;;;;28.80;31.48;102145.63;5072599;28;20607;-70
2021/09/07 08:28:30;;;;;;;5.47;4.97;;;;;;;29.76;30.08;102139.34;5060494;28;20532;-68
2021/09/07 08:30:55;;;;;;;5.43;5.03;;;;;;;28.26;32.14;102147.94;5059268;28;20257;-68
2021/09/07 08:33:21;;;;;;;6.50;5.47;;;;;;;30.05;30.22;102147.78;5071221;28;20208;-69
2021/09/07 08:35:46;;;;;;;5.73;5.20;;;;;;;29.39;30.74;102146.50;5073154;28;20165;-69
2021/09/07 08:38:12;;;;;;;5.70;5.20;;;;;;;29.01;29.68;102149.13;5067399;28;20185;-69
2021/09/07 08:40:37;;;;;;;5.60;5.20;;;;;;;29.26;29.71;102146.22;5066708;28;20252;-69
2021/09/07 08:43:06;;;;;;;5.80;5.27;;;;;;;27.97;31.68;102147.31;5066018;28;20199;-68
2021/09/07 08:45:32;;;;;;;5.77;5.03;;;;;;;29.55;29.08;102135.88;5077786;28;20175;-69
2021/09/07 08:47:58;;;;;;;5.33;4.83;;;;;;;29.06;30.03;102142.63;5076751;28;20455;-69
2021/09/07 08:50:25;;;;;;;7.27;4.97;;;;;;;28.66;29.75;102144.44;5077702;28;20411;-68
2021/09/07 08:52:55;;;;;;;9.00;5.00;;;;;;;29.73;28.27;102132.28;5078008;28;20446;-69
2021/09/07 08:55:21;;;;;;;5.60;5.10;;;;;;;28.05;31.15;102140.75;5077581;28;20680;-68
2021/09/07 08:57:46;;;;;;;7.20;4.40;;;;;;;28.42;29.64;102132.94;5077912;28;20403;-68
2021/09/07 09:00:12;;;;;;;6.07;4.13;;;;;;;29.20;28.26;102138.41;5081563;28;20176;-69
2021/09/07 09:02:43;;;;;;;4.77;4.37;;;;;;;29.05;28.36;102145.34;5081301;28;20209;-69
2021/09/07 09:05:09;;;;;;;5.33;4.60;;;;;;;28.84;28.92;102142.72;5082138;28;20165;-68
2021/09/07 09:07:34;;;;;;;10.17;4.60;;;;;;;29.35;27.81;102137.72;5081597;28;20484;-69
2021/09/07 09:10:00;;;;;;;7.90;4.30;;;;;;;27.69;30.50;102143.09;5082308;28;20461;-69
2021/09/07 09:12:36;;;;;;;7.00;5.20;;;;;;;25.90;33.86;102150.34;5081039;28;20175;-68
2021/09/07 09:15:09;;;;;;;5.10;4.70;;;;;;;28.31;30.14;102140.59;5081610;28;20161;-69
2021/09/07 09:17:34;;;;;;;4.90;4.50;;;;;;;28.14;30.61;102142.16;5081476;28;20413;-68
2021/09/07 09:20:04;;;;;;;5.50;4.93;;;;;;;28.29;29.73;102139.75;5081700;28;20710;-68
2021/09/07 09:22:43;;;;;;;5.70;4.80;;;;;;;28.69;29.13;102140.75;5081822;28;20207;-68
2021/09/07 09:25:24;;;;;;;5.30;4.73;;;;;;;29.01;27.63;102139.28;5040410;28;20421;-67
2021/09/07 09:27:55;;;;;;;5.30;4.80;;;;;;;31.27;24.62;102130.63;5041434;28;20451;-68
2021/09/07 09:30:27;;;;;;;4.93;4.63;;;;;;;29.34;27.58;102135.09;5041327;28;20413;-69
2021/09/07 09:32:54;;;;;;;6.57;4.60;;;;;;;30.63;26.80;102118.84;5041346;28;20678;-68
2021/09/07 09:35:19;;;;;;;5.67;5.17;;;;;;;30.78;26.67;102125.22;5041008;28;20413;-69
2021/09/07 09:37:59;;;;;;;5.60;5.10;;;;;;;28.95;29.45;102136.00;5041145;28;20463;-68
2021/09/07 09:40:25;;;;;;;5.13;4.73;;;;;;;29.66;28.47;102122.81;5050374;28;20180;-69
2021/09/07 09:42:51;;;;;;;5.07;4.57;;;;;;;31.65;26.06;102124.00;5060596;28;20456;-68
2021/09/07 09:45:17;;;;;;;6.00;4.90;;;;;;;30.26;26.44;102127.00;5061219;28;20813;-68
2021/09/07 09:47:51;;;;;;;6.00;4.67;;;;;;;29.27;27.55;102130.94;5060728;28;20217;-69
2021/09/07 09:50:18;;;;;;;5.17;4.67;;;;;;;28.44;28.77;102128.34;5060886;28;20665;-69
2021/09/07 09:52:45;;;;;;;5.17;4.67;;;;;;;29.85;28.19;102128.16;5060804;28;20415;-69
2021/09/07 09:55:12;;;;;;;6.23;5.33;;;;;;;28.77;29.99;102126.94;5060387;28;20412;-67
2021/09/07 09:57:39;;;;;;;6.00;5.40;;;;;;;29.02;29.62;102124.03;5061330;28;20867;-68
2021/09/07 10:00:10;;;;;;;6.30;5.70;;;;;;;30.04;29.56;102116.50;5060463;28;20416;-70
2021/09/07 10:02:35;;;;;;;6.10;5.53;;;;;;;29.37;29.24;102122.38;5060317;28;20463;-69
2021/09/07 10:05:01;;;;;;;7.33;6.63;;;;;;;29.45;28.95;102124.72;5060906;28;20503;-69
2021/09/07 10:07:26;;;;;;;6.20;5.70;;;;;;;28.87;29.77;102113.03;5060317;28;20535;-73
2021/09/07 10:09:53;;;;;;;8.97;6.60;;;;;;;29.92;29.05;102101.84;5059961;28;20181;-72
2021/09/07 10:12:27;;;;;;;6.00;5.50;;;;;;;29.52;29.10;102103.78;5060491;28;20161;-70
2021/09/07 10:15:03;;;;;;;10.17;9.17;;;;;;;30.38;28.39;102103.97;5060252;28;20423;-72
2021/09/07 10:20:11;;;;;;;7.70;5.97;;;;;;;30.04;28.89;102113.78;5059930;28;20424;-69
2021/09/07 10:23:50;;;;;;;7.03;6.33;;;;;;;28.57;32.10;102117.97;5060293;28;20504;-70
2021/09/07 10:25:56;;;;;;;9.23;6.43;;;;;;;28.98;31.78;102115.22;5058895;28;20417;-69
2021/09/07 10:28:42;;;;;;;7.80;6.97;;;;;;;26.27;34.60;102124.22;5060167;28;20503;-70
2021/09/07 10:31:18;;;;;;;8.33;6.17;;;;;;;26.60;35.26;102107.91;5059992;28;20447;-69
2021/09/07 10:33:56;;;;;;;7.60;6.57;;;;;;;28.82;32.41;102101.66;5059704;28;20442;-69
2021/09/07 10:36:24;;;;;;;8.53;7.70;;;;;;;28.01;31.71;102108.75;5077039;28;20437;-70
2021/09/07 10:38:51;;;;;;;7.33;6.57;;;;;;;28.80;32.21;102100.84;5064591;28;20423;-69
2021/09/07 10:41:28;;;;;;;8.07;6.10;;;;;;;27.46;33.92;102104.72;5075271;28;20463;-68
2021/09/07 10:44:02;;;;;;;6.87;6.27;;;;;;;28.12;32.72;102100.25;5069505;28;20506;-69
2021/09/07 10:46:41;;;;;;;8.30;5.73;;;;;;;27.56;33.12;102102.53;5061272;28;20489;-70
2021/09/07 10:49:16;;;;;;;6.17;5.57;;;;;;;28.25;31.48;102093.41;5060634;28;20694;-68
2021/09/07 10:52:09;;;;;;;5.73;5.13;;;;;;;26.64;33.09;102099.75;5060300;28;20503;-75
2021/09/07 10:54:45;;;;;;;6.40;5.80;;;;;;;28.65;30.84;102101.56;5077012;28;20437;-73
2021/09/07 10:57:36;;;;;;;11.23;5.67;;;;;;;28.17;31.60;102107.19;5070685;28;20420;-73
2021/09/07 11:00:17;;;;;;;5.90;5.30;;;;;;;28.71;30.83;102106.63;5059550;28;20415;-74
2021/09/07 11:02:44;;;;;;;6.57;5.20;;;;;;;28.41;31.25;102099.00;5058680;28;20459;-71
2021/09/07 11:05:33;;;;;;;6.00;5.37;;;;;;;29.26;30.08;102097.84;5059449;28;20420;-73
2021/09/07 11:08:02;;;;;;;5.93;5.20;;;;;;;29.14;31.71;102095.72;5059693;28;20892;-73
2021/09/07 11:10:34;;;;;;;7.60;6.40;;;;;;;28.14;33.09;102101.94;5059301;28;20412;-72
2021/09/07 11:13:01;;;;;;;15.30;11.70;;;;;;;29.73;31.11;102085.75;5059535;28;20424;-72
2021/09/07 11:15:30;;;;;;;9.63;8.63;;;;;;;29.49;30.93;102088.69;5059123;28;20496;-74